Time;durP1;ratioP1;P1;durP2;ratioP2;P2;SDS_P1;SDS_P2;PMS_P1;PMS_P2;Temp;Humidity;BMP_temperature;BMP_pressure;BME280_temperature;BME280_humidity;BME280_pressure;Samples;Min_cycle;Max_cycle;Signal;HPM_P1;HPM_P2
2022/08/15 00:01:24;;;;;;;12.02;9.07;;;16.60;99.90;;;;;;5033179;28;20029;-70
2022/08/15 00:03:56;;;;;;;13.77;10.48;;;16.60;99.90;;;;;;5031941;28;20034;-69
2022/08/15 00:06:43;;;;;;;10.70;9.30;;;16.60;99.90;;;;;;5034966;28;20082;-70
2022/08/15 00:09:15;;;;;;;11.77;9.32;;;16.60;99.90;;;;;;5035530;28;20025;-70
2022/08/15 00:11:44;;;;;;;12.73;10.25;;;16.50;99.90;;;;;;5036740;28;20108;-70
2022/08/15 00:14:20;;;;;;;13.50;10.23;;;16.50;99.90;;;;;;5036558;28;20052;-70
2022/08/15 00:16:48;;;;;;;12.30;9.85;;;16.50;99.90;;;;;;5036382;28;20479;-70
2022/08/15 00:19:19;;;;;;;12.60;9.65;;;16.50;99.90;;;;;;5036560;28;20047;-70
2022/08/15 00:21:49;;;;;;;18.40;10.13;;;16.50;99.90;;;;;;5035815;28;20406;-70
2022/08/15 00:24:18;;;;;;;13.25;9.55;;;16.50;99.90;;;;;;5035071;28;20175;-70
2022/08/15 00:26:48;;;;;;;11.90;10.25;;;16.40;99.90;;;;;;5036389;28;20072;-70
2022/08/15 00:29:16;;;;;;;12.85;9.82;;;16.40;99.90;;;;;;5036337;28;20471;-70
2022/08/15 00:31:42;;;;;;;12.98;9.90;;;16.40;99.90;;;;;;5036019;28;20471;-70
2022/08/15 00:34:09;;;;;;;12.32;10.65;;;16.30;99.90;;;;;;5035991;28;20029;-70
2022/08/15 00:36:36;;;;;;;12.85;10.68;;;16.30;99.90;;;;;;5036220;28;20487;-70
2022/08/15 00:39:03;;;;;;;11.63;10.25;;;16.30;99.90;;;;;;5038100;28;20043;-70
2022/08/15 00:41:41;;;;;;;10.93;9.45;;;16.30;99.90;;;;;;5055918;28;20033;-70
2022/08/15 00:44:21;;;;;;;10.85;9.60;;;16.30;99.90;;;;;;5056055;28;20040;-69
2022/08/15 00:46:54;;;;;;;14.38;10.45;;;16.30;99.90;;;;;;5056400;28;20047;-70
2022/08/15 00:49:22;;;;;;;14.45;10.77;;;16.30;99.90;;;;;;5056001;28;20382;-69
2022/08/15 00:52:11;;;;;;;12.35;10.35;;;16.20;99.90;;;;;;5055593;28;20032;-70
2022/08/15 00:54:47;;;;;;;15.25;10.18;;;16.20;99.90;;;;;;5056060;28;20087;-70
2022/08/15 00:57:16;;;;;;;13.07;10.60;;;16.20;99.90;;;;;;5038043;28;20029;-70
2022/08/15 00:59:46;;;;;;;12.43;10.05;;;16.20;99.90;;;;;;5037742;28;20486;-70
2022/08/15 01:02:16;;;;;;;14.35;10.40;;;16.20;99.90;;;;;;5038027;28;20060;-70
2022/08/15 01:04:42;;;;;;;11.48;9.35;;;16.20;99.90;;;;;;5055411;28;20475;-69
2022/08/15 01:07:09;;;;;;;12.15;9.70;;;16.10;99.90;;;;;;5037694;28;20467;-70
2022/08/15 01:09:36;;;;;;;13.60;10.10;;;16.10;99.90;;;;;;5055924;28;20055;-70
2022/08/15 01:12:07;;;;;;;12.80;9.70;;;16.10;99.90;;;;;;5037579;28;20470;-70
2022/08/15 01:14:36;;;;;;;12.20;9.95;;;16.10;99.90;;;;;;5055500;28;20033;-69
2022/08/15 01:17:03;;;;;;;12.27;10.15;;;16.10;99.90;;;;;;5037147;28;20025;-70
2022/08/15 01:19:40;;;;;;;11.85;9.77;;;16.10;99.90;;;;;;5054983;28;20033;-70
2022/08/15 01:22:08;;;;;;;11.63;10.18;;;16.10;99.90;;;;;;5054963;28;20390;-69
2022/08/15 01:24:48;;;;;;;14.90;9.55;;;16.10;99.90;;;;;;5055431;28;20170;-70
2022/08/15 01:27:16;;;;;;;13.98;10.27;;;16.00;99.90;;;;;;5037274;28;20041;-70
2022/08/15 01:29:42;;;;;;;12.50;10.05;;;16.00;99.90;;;;;;5037236;28;20025;-70
2022/08/15 01:32:08;;;;;;;13.20;10.13;;;16.00;99.90;;;;;;5055203;28;20475;-70
2022/08/15 01:34:34;;;;;;;13.45;9.38;;;16.00;99.90;;;;;;5055179;28;20163;-69
2022/08/15 01:37:00;;;;;;;13.95;10.50;;;15.90;99.90;;;;;;5055299;28;20021;-70
2022/08/15 01:39:38;;;;;;;12.73;9.77;;;15.90;99.90;;;;;;5054811;28;20048;-69
2022/08/15 01:42:28;;;;;;;12.02;10.35;;;15.90;99.90;;;;;;5054571;28;20474;-69
2022/08/15 01:45:00;;;;;;;12.82;9.10;;;15.90;99.90;;;;;;5037126;28;20040;-70
2022/08/15 01:47:48;;;;;;;15.07;9.27;;;15.90;99.90;;;;;;5037030;28;20031;-70
2022/08/15 01:50:39;;;;;;;12.30;10.23;;;15.90;99.90;;;;;;5055068;28;20060;-70
2022/08/15 01:53:08;;;;;;;14.88;10.23;;;15.90;99.90;;;;;;5054790;28;20108;-69
2022/08/15 01:55:57;;;;;;;;;;;15.80;99.90;;;;;;5055347;28;20382;-70
2022/08/15 01:58:23;;;;;;;11.40;9.43;;;15.80;99.90;;;;;;5049159;28;19904;-69
2022/08/15 02:00:53;;;;;;;14.23;10.20;;;15.80;99.90;;;;;;5036747;28;20360;-69
2022/08/15 02:03:19;;;;;;;12.85;9.70;;;15.80;99.90;;;;;;5036549;28;20029;-69
2022/08/15 02:05:45;;;;;;;13.38;10.02;;;15.70;99.90;;;;;;5054679;28;20048;-70
2022/08/15 02:08:11;;;;;;;11.95;9.10;;;15.70;99.90;;;;;;5054452;28;20025;-69
2022/08/15 02:10:36;;;;;;;12.35;10.20;;;15.70;99.90;;;;;;5054698;28;20417;-69
2022/08/15 02:13:04;;;;;;;11.85;9.57;;;15.70;99.90;;;;;;5054710;28;20061;-69
2022/08/15 02:15:30;;;;;;;14.52;10.07;;;15.70;99.90;;;;;;5036498;28;20446;-69
2022/08/15 02:17:55;;;;;;;10.93;9.32;;;15.70;99.90;;;;;;5054250;28;20057;-69
2022/08/15 02:20:23;;;;;;;14.05;9.68;;;15.70;99.90;;;;;;5054193;28;20025;-69
2022/08/15 02:22:48;;;;;;;11.77;9.38;;;15.60;99.90;;;;;;5054150;28;20078;-69
2022/08/15 02:25:14;;;;;;;13.48;10.27;;;15.60;99.90;;;;;;5054122;28;20036;-70
2022/08/15 02:27:40;;;;;;;12.82;9.65;;;15.60;99.90;;;;;;5054059;28;20112;-69
2022/08/15 02:30:13;;;;;;;11.75;9.85;;;15.60;99.90;;;;;;5035233;28;20119;-69
2022/08/15 02:32:40;;;;;;;12.05;9.88;;;15.60;99.90;;;;;;5036112;28;20425;-69
2022/08/15 02:35:08;;;;;;;13.45;9.98;;;15.60;99.90;;;;;;5053971;28;20120;-69
2022/08/15 02:37:34;;;;;;;12.88;9.23;;;15.60;99.90;;;;;;5054198;28;20469;-69
2022/08/15 02:40:00;;;;;;;12.85;9.82;;;15.50;99.90;;;;;;5054021;28;20144;-69
2022/08/15 02:42:26;;;;;;;13.05;10.30;;;15.50;99.90;;;;;;5053979;28;20443;-69
2022/08/15 02:44:52;;;;;;;12.95;9.73;;;15.50;99.90;;;;;;5053731;28;20120;-69
2022/08/15 02:47:18;;;;;;;16.55;10.63;;;15.50;99.90;;;;;;5054000;28;20127;-69
2022/08/15 02:49:44;;;;;;;13.50;9.93;;;15.50;99.90;;;;;;5035901;28;20063;-69
2022/08/15 02:52:12;;;;;;;12.70;10.82;;;15.40;99.90;;;;;;5035898;28;20144;-69
2022/08/15 02:54:38;;;;;;;12.43;10.32;;;15.40;99.90;;;;;;5053870;28;20025;-69
2022/08/15 02:57:04;;;;;;;12.00;10.55;;;15.40;99.90;;;;;;5053375;28;20425;-69
2022/08/15 02:59:30;;;;;;;14.63;10.45;;;15.40;99.90;;;;;;5053567;28;20021;-70
2022/08/15 03:01:57;;;;;;;11.00;9.45;;;15.40;99.90;;;;;;5053656;28;20051;-69
2022/08/15 03:04:23;;;;;;;13.38;10.57;;;15.40;99.90;;;;;;5053535;28;20029;-69
2022/08/15 03:06:53;;;;;;;10.38;9.05;;;15.40;99.90;;;;;;5053628;28;20471;-70
2022/08/15 03:09:21;;;;;;;15.02;9.20;;;15.40;99.90;;;;;;5035710;28;20029;-70
2022/08/15 03:11:47;;;;;;;15.05;10.40;;;15.40;99.90;;;;;;5035759;28;20032;-69
2022/08/15 03:14:16;;;;;;;14.32;9.75;;;15.40;99.90;;;;;;5053623;28;20036;-70
2022/08/15 03:16:44;;;;;;;11.48;9.98;;;15.30;99.90;;;;;;5053993;28;20028;-70
2022/08/15 03:19:18;;;;;;;11.10;9.88;;;15.30;99.90;;;;;;5035626;28;20032;-70
2022/08/15 03:21:45;;;;;;;11.40;10.20;;;15.30;99.90;;;;;;5035575;28;20040;-70
2022/08/15 03:24:12;;;;;;;12.45;10.25;;;15.30;99.90;;;;;;5053079;28;20068;-69
2022/08/15 03:26:38;;;;;;;13.90;10.13;;;15.30;99.90;;;;;;5035546;28;20025;-69
2022/08/15 03:29:06;;;;;;;15.38;10.43;;;15.30;99.90;;;;;;5053389;28;20033;-69
2022/08/15 03:31:34;;;;;;;13.98;10.90;;;15.30;99.90;;;;;;5053435;28;20025;-70
2022/08/15 03:34:00;;;;;;;11.73;9.73;;;15.30;99.90;;;;;;5053419;28;20032;-70
2022/08/15 03:36:26;;;;;;;14.13;10.65;;;15.30;99.90;;;;;;5053415;28;20518;-69
2022/08/15 03:38:52;;;;;;;14.55;10.57;;;15.20;99.90;;;;;;5035298;28;20114;-70
2022/08/15 03:41:18;;;;;;;11.55;9.95;;;15.20;99.90;;;;;;5054836;28;20374;-69
2022/08/15 03:43:45;;;;;;;15.75;10.25;;;15.20;99.90;;;;;;5057128;28;20410;-70
2022/08/15 03:46:16;;;;;;;15.13;10.13;;;15.20;99.90;;;;;;5057103;28;20030;-70
2022/08/15 03:48:47;;;;;;;11.63;9.48;;;15.20;99.90;;;;;;5057226;28;20021;-70
2022/08/15 03:51:14;;;;;;;11.57;9.70;;;15.20;99.90;;;;;;5038872;28;20035;-69
2022/08/15 03:53:53;;;;;;;13.15;10.23;;;15.10;99.90;;;;;;5056697;28;20029;-70
2022/08/15 03:56:25;;;;;;;16.92;10.57;;;15.10;99.90;;;;;;5039066;28;20029;-70
2022/08/15 03:58:52;;;;;;;11.93;9.77;;;15.10;99.90;;;;;;5039344;28;20374;-69
2022/08/15 04:01:22;;;;;;;14.65;11.10;;;15.10;99.90;;;;;;5056614;28;20439;-70
2022/08/15 04:03:49;;;;;;;15.63;10.73;;;15.10;99.90;;;;;;5056395;28;20033;-70
2022/08/15 04:06:19;;;;;;;14.45;10.85;;;15.20;99.90;;;;;;5038848;28;20029;-69
2022/08/15 04:08:46;;;;;;;14.57;10.57;;;15.20;99.90;;;;;;5038815;28;20029;-69
2022/08/15 04:11:12;;;;;;;16.48;10.93;;;15.10;99.90;;;;;;5056633;28;20074;-69
2022/08/15 04:13:39;;;;;;;13.77;10.35;;;15.20;99.90;;;;;;5056903;28;20040;-70
2022/08/15 04:16:06;;;;;;;13.95;10.80;;;15.20;99.90;;;;;;5056554;28;20036;-70
2022/08/15 04:18:31;;;;;;;12.55;10.75;;;15.20;99.90;;;;;;5038629;28;20028;-69
2022/08/15 04:21:00;;;;;;;13.32;10.55;;;15.20;99.90;;;;;;5056502;28;20032;-70
2022/08/15 04:23:27;;;;;;;12.20;7.63;;;15.30;99.90;;;;;;5056041;28;20390;-70
2022/08/15 04:25:53;;;;;;;13.50;10.15;;;15.30;99.90;;;;;;5056408;28;20150;-70
2022/08/15 04:28:20;;;;;;;16.73;10.68;;;15.40;99.90;;;;;;5056493;28;20052;-70
2022/08/15 04:30:48;;;;;;;13.70;10.55;;;15.40;99.90;;;;;;5056520;28;20028;-70
2022/08/15 04:33:23;;;;;;;13.30;10.77;;;15.40;99.90;;;;;;5056288;28;20029;-69
2022/08/15 04:35:55;;;;;;;13.50;10.52;;;15.50;99.90;;;;;;5056265;28;20035;-69
2022/08/15 04:38:21;;;;;;;13.07;10.25;;;15.50;99.90;;;;;;5056141;28;20052;-70
2022/08/15 04:40:48;;;;;;;13.75;9.75;;;15.60;99.90;;;;;;5038168;28;20498;-69
2022/08/15 04:43:15;;;;;;;13.85;10.57;;;15.60;99.90;;;;;;5055974;28;20060;-70
2022/08/15 04:45:41;;;;;;;13.05;10.85;;;15.70;99.90;;;;;;5056032;28;20129;-71
2022/08/15 04:48:09;;;;;;;13.13;10.35;;;15.70;99.90;;;;;;5056240;28;20429;-70
2022/08/15 04:50:38;;;;;;;13.18;9.85;;;15.80;99.90;;;;;;5055633;28;20025;-70
2022/08/15 04:53:07;;;;;;;11.23;10.00;;;15.90;99.90;;;;;;5055027;28;20508;-70
2022/08/15 04:55:35;;;;;;;11.43;9.95;;;15.90;99.90;;;;;;5038663;28;20382;-69
2022/08/15 04:58:01;;;;;;;12.63;10.55;;;15.90;99.90;;;;;;5055462;28;20467;-70
2022/08/15 05:00:28;;;;;;;11.43;10.13;;;15.90;99.90;;;;;;5055870;28;20025;-70
2022/08/15 05:03:07;;;;;;;13.50;10.57;;;15.90;99.90;;;;;;5055300;28;20488;-70
2022/08/15 05:05:36;;;;;;;13.07;10.38;;;15.90;99.90;;;;;;5056178;28;20036;-70
2022/08/15 05:08:02;;;;;;;12.18;9.95;;;15.90;99.90;;;;;;5055334;28;20443;-70
2022/08/15 05:10:29;;;;;;;11.65;9.75;;;16.00;99.90;;;;;;5055273;28;20056;-70
2022/08/15 05:12:54;;;;;;;16.10;10.68;;;16.10;99.90;;;;;;5056027;28;20048;-70
2022/08/15 05:15:21;;;;;;;11.15;10.02;;;16.20;99.90;;;;;;5055588;28;20025;-70
2022/08/15 05:17:48;;;;;;;13.88;10.85;;;16.20;99.90;;;;;;5055469;28;20048;-70
2022/08/15 05:20:19;;;;;;;14.50;9.43;;;16.30;99.90;;;;;;5055494;28;20474;-71
2022/08/15 05:23:17;;;;;;;13.35;9.70;;;16.40;99.90;;;;;;5055344;28;20036;-70
2022/08/15 05:25:46;;;;;;;11.85;9.98;;;16.50;99.90;;;;;;5050512;28;20053;-67
2022/08/15 05:28:13;;;;;;;14.23;10.25;;;16.60;99.90;;;;;;5055189;28;20120;-67
2022/08/15 05:30:40;;;;;;;12.23;9.57;;;16.80;99.90;;;;;;5054868;28;20359;-67
2022/08/15 05:33:17;;;;;;;13.70;10.63;;;16.90;99.90;;;;;;5037187;28;20032;-67
2022/08/15 05:35:46;;;;;;;10.95;9.40;;;17.00;99.90;;;;;;5055724;28;20075;-67
2022/08/15 05:38:20;;;;;;;11.25;9.18;;;17.10;99.90;;;;;;5054742;28;20028;-66
2022/08/15 05:41:08;;;;;;;12.80;9.77;;;17.30;99.90;;;;;;5054918;28;20098;-66
2022/08/15 05:44:02;;;;;;;10.48;8.80;;;17.30;99.90;;;;;;5054862;28;20433;-67
2022/08/15 05:46:36;;;;;;;11.30;8.73;;;17.50;99.90;;;;;;5055026;28;20040;-67
2022/08/15 05:49:08;;;;;;;12.80;8.73;;;17.70;99.90;;;;;;5054466;28;20493;-67
2022/08/15 05:51:47;;;;;;;11.10;9.13;;;17.70;99.90;;;;;;5054847;28;20028;-66
2022/08/15 05:54:28;;;;;;;11.75;9.10;;;17.90;99.90;;;;;;5054715;28;20029;-67
2022/08/15 05:57:15;;;;;;;14.75;9.35;;;18.00;99.90;;;;;;5054931;28;20021;-67
2022/08/15 05:59:43;;;;;;;13.18;8.85;;;18.20;99.90;;;;;;5037042;28;20031;-66
2022/08/15 06:02:31;;;;;;;10.27;8.65;;;18.30;99.90;;;;;;5054266;28;20383;-67
2022/08/15 06:05:03;;;;;;;12.80;9.88;;;18.60;99.90;;;;;;5054184;28;20033;-67
2022/08/15 06:07:30;;;;;;;10.40;9.30;;;18.90;99.90;;;;;;5036410;28;20033;-67
2022/08/15 06:10:04;;;;;;;9.90;8.63;;;19.50;99.90;;;;;;5054077;28;20060;-68
2022/08/15 06:12:47;;;;;;;10.70;8.57;;;19.90;99.90;;;;;;5054193;28;20028;-68
2022/08/15 06:15:16;;;;;;;8.73;7.82;;;20.30;99.90;;;;;;5054694;28;20029;-68
2022/08/15 06:17:45;;;;;;;9.38;8.13;;;20.60;99.90;;;;;;5054211;28;20029;-68
2022/08/15 06:20:17;;;;;;;11.35;8.90;;;20.80;99.90;;;;;;5054197;28;20025;-61
2022/08/15 06:22:45;;;;;;;9.20;8.20;;;21.10;99.90;;;;;;5053860;28;20493;-63
2022/08/15 06:25:25;;;;;;;10.25;7.85;;;21.40;99.90;;;;;;5054123;28;20482;-64
2022/08/15 06:28:09;;;;;;;9.07;8.10;;;21.70;99.90;;;;;;5053882;28;20394;-64
2022/08/15 06:31:07;;;;;;;9.38;8.07;;;22.00;99.90;;;;;;5036202;28;20434;-65
2022/08/15 06:33:48;;;;;;;10.93;7.88;;;22.20;99.90;;;;;;5031972;28;20093;-65
2022/08/15 06:36:27;;;;;;;10.55;7.93;;;22.50;99.90;;;;;;5054517;28;20497;-64
2022/08/15 06:39:08;;;;;;;10.02;7.88;;;22.60;99.90;;;;;;5053530;28;20104;-65
2022/08/15 06:41:50;;;;;;;9.63;7.43;;;22.90;99.90;;;;;;5054407;28;20032;-66
2022/08/15 06:44:18;;;;;;;7.65;6.95;;;23.20;99.90;;;;;;5053756;28;20036;-67
2022/08/15 06:46:47;;;;;;;11.20;7.82;;;23.50;99.90;;;;;;5053383;28;20045;-62
2022/08/15 06:49:13;;;;;;;8.60;7.70;;;23.50;99.90;;;;;;5035885;28;20482;-64
2022/08/15 06:51:41;;;;;;;8.45;7.53;;;23.60;99.90;;;;;;5053728;28;20061;-65
2022/08/15 06:54:14;;;;;;;8.27;7.47;;;23.80;99.90;;;;;;5035944;28;20390;-65
2022/08/15 06:57:01;;;;;;;8.02;7.22;;;24.00;99.90;;;;;;5053926;28;20021;-65
2022/08/15 06:59:56;;;;;;;11.00;7.45;;;24.20;99.90;;;;;;5053693;28;20421;-65
2022/08/15 07:02:44;;;;;;;8.77;7.45;;;24.10;99.90;;;;;;5053670;28;20033;-65
2022/08/15 07:05:33;;;;;;;10.35;7.40;;;24.40;99.90;;;;;;5053568;28;20029;-65
2022/08/15 07:08:10;;;;;;;8.07;7.18;;;24.80;99.90;;;;;;5052279;28;20033;-65
2022/08/15 07:10:48;;;;;;;8.70;7.63;;;24.90;99.90;;;;;;5053473;28;20033;-61
2022/08/15 07:13:20;;;;;;;9.23;7.30;;;24.90;99.90;;;;;;5053999;28;20343;-61
2022/08/15 07:15:48;;;;;;;8.45;7.65;;;25.10;99.90;;;;;;5054071;28;20033;-61
2022/08/15 07:18:23;;;;;;;8.23;7.43;;;25.30;99.90;;;;;;5057713;28;20027;-61
2022/08/15 07:20:50;;;;;;;8.45;7.30;;;25.40;99.90;;;;;;5057587;28;20108;-61
2022/08/15 07:23:26;;;;;;;7.57;6.88;;;25.60;99.90;;;;;;5057568;28;20067;-62
2022/08/15 07:25:53;;;;;;;8.45;7.65;;;25.70;99.90;;;;;;5057947;28;20029;-61
2022/08/15 07:28:28;;;;;;;9.63;7.15;;;25.80;99.90;;;;;;5057432;28;20032;-61
2022/08/15 07:31:01;;;;;;;10.00;7.55;;;26.20;99.90;;;;;;5057609;28;20493;-62
2022/08/15 07:33:32;;;;;;;8.77;6.90;;;26.30;99.90;;;;;;5039654;28;20024;-62
2022/08/15 07:36:20;;;;;;;8.45;7.63;;;26.30;99.90;;;;;;5039354;28;20025;-62
2022/08/15 07:38:46;;;;;;;8.73;7.22;;;26.50;99.90;;;;;;5057230;28;20386;-62
2022/08/15 07:41:30;;;;;;;8.27;6.90;;;26.50;99.90;;;;;;5039292;28;20053;-62
2022/08/15 07:44:25;;;;;;;9.18;7.60;;;26.80;99.90;;;;;;5057199;28;20029;-63
2022/08/15 07:46:56;;;;;;;9.30;7.75;;;27.20;99.30;;;;;;5057302;28;20489;-64
2022/08/15 07:49:26;;;;;;;8.75;7.85;;;27.30;98.80;;;;;;5057282;28;20376;-64
2022/08/15 07:52:04;;;;;;;7.43;6.72;;;27.40;98.40;;;;;;5057025;28;20096;-63
2022/08/15 07:54:43;;;;;;;8.68;7.80;;;27.60;98.30;;;;;;5056699;28;20032;-63
2022/08/15 07:57:30;;;;;;;7.28;6.38;;;28.10;97.00;;;;;;5057051;28;20056;-64
2022/08/15 08:00:05;;;;;;;7.57;6.95;;;28.40;96.50;;;;;;5056731;28;20029;-67
2022/08/15 08:02:53;;;;;;;7.15;6.45;;;28.50;95.30;;;;;;5056820;28;20425;-68
2022/08/15 08:05:21;;;;;;;7.22;6.55;;;28.60;95.20;;;;;;5039037;28;20102;-69
2022/08/15 08:07:49;;;;;;;8.60;7.20;;;29.00;93.90;;;;;;5056620;28;20447;-69
2022/08/15 08:10:21;;;;;;;8.10;7.40;;;28.90;93.30;;;;;;5038777;28;20497;-68
2022/08/15 08:13:11;;;;;;;8.15;6.85;;;28.60;92.90;;;;;;5038427;28;20035;-68
2022/08/15 08:15:53;;;;;;;7.65;6.93;;;28.40;93.10;;;;;;5056737;28;20205;-68
2022/08/15 08:18:44;;;;;;;7.50;6.75;;;28.40;92.80;;;;;;5056567;28;20029;-69
2022/08/15 08:21:15;;;;;;;8.32;6.68;;;28.50;92.80;;;;;;5056744;28;20049;-77
2022/08/15 08:23:47;;;;;;;10.18;7.20;;;28.70;92.10;;;;;;5038445;28;20111;-75
2022/08/15 08:26:44;;;;;;;7.75;6.25;;;29.20;91.20;;;;;;5056597;28;20033;-74
2022/08/15 08:29:28;;;;;;;10.50;6.13;;;29.30;90.40;;;;;;5056531;28;20100;-81
2022/08/15 08:32:17;;;;;;;7.15;6.53;;;29.40;89.10;;;;;;5038538;28;20029;-69
2022/08/15 08:35:05;;;;;;;6.18;5.57;;;29.20;87.50;;;;;;5056197;28;20037;-69
2022/08/15 08:37:41;;;;;;;6.57;5.97;;;29.00;87.60;;;;;;5056249;28;20029;-69
2022/08/15 08:43:10;;;;;;;6.68;5.97;;;28.90;88.40;;;;;;5056072;28;20084;-69
2022/08/15 08:45:49;;;;;;;8.63;7.43;;;29.30;87.10;;;;;;5038369;28;20461;-62
2022/08/15 08:48:31;;;;;;;22.98;13.82;;;29.50;87.10;;;;;;5055922;28;20048;-63
2022/08/15 08:51:05;;;;;;;10.07;8.43;;;30.20;85.70;;;;;;5055589;28;20401;-64
2022/08/15 08:53:54;;;;;;;8.98;7.80;;;30.30;83.20;;;;;;5037988;28;20467;-63
2022/08/15 08:56:27;;;;;;;6.97;6.28;;;29.90;82.90;;;;;;5056128;28;20051;-70
2022/08/15 08:59:16;;;;;;;8.90;7.60;;;29.90;82.70;;;;;;5056037;28;20029;-78
2022/08/15 09:01:43;;;;;;;9.57;6.45;;;30.40;82.00;;;;;;5037788;28;20036;-78
2022/08/15 09:04:26;;;;;;;6.80;5.60;;;31.30;79.40;;;;;;5037694;28;20029;-77
2022/08/15 09:06:55;;;;;;;6.78;6.13;;;31.90;74.40;;;;;;5037742;28;20029;-78
2022/08/15 09:09:35;;;;;;;6.38;5.78;;;32.20;71.70;;;;;;5055540;28;20036;-74
2022/08/15 09:15:12;;;;;;;6.13;5.53;;;33.10;68.10;;;;;;5055441;28;20597;-73
2022/08/15 09:17:38;;;;;;;6.20;5.55;;;33.80;66.70;;;;;;5037555;28;20017;-71
2022/08/15 09:20:19;;;;;;;6.47;5.75;;;34.20;63.30;;;;;;5055420;28;20029;-71
2022/08/15 09:22:46;;;;;;;6.20;5.70;;;34.20;62.20;;;;;;5037575;28;20029;-72
2022/08/15 09:25:12;;;;;;;5.53;4.95;;;34.60;61.70;;;;;;5055252;28;20037;-71
2022/08/15 09:28:15;;;;;;;6.93;5.32;;;34.90;60.10;;;;;;5054909;28;20367;-71
2022/08/15 09:30:43;;;;;;;5.80;5.15;;;34.90;59.90;;;;;;5039486;28;20029;-72
2022/08/15 09:33:18;;;;;;;5.75;5.25;;;35.10;59.10;;;;;;5037299;28;20025;-73
2022/08/15 09:36:15;;;;;;;6.60;5.28;;;35.40;58.20;;;;;;5055187;28;20029;-64
2022/08/15 09:38:51;;;;;;;5.50;5.00;;;35.10;55.60;;;;;;5054169;28;20421;-64
2022/08/15 09:41:40;;;;;;;5.22;4.82;;;34.20;57.10;;;;;;5054911;28;20037;-64
2022/08/15 09:44:09;;;;;;;5.95;5.50;;;33.60;58.20;;;;;;5036935;28;20037;-64
2022/08/15 09:46:53;;;;;;;5.50;5.10;;;33.00;58.30;;;;;;5054764;28;20033;-64
2022/08/15 09:49:38;;;;;;;5.97;5.47;;;32.70;59.20;;;;;;5054779;28;20074;-65
2022/08/15 09:52:35;;;;;;;5.45;5.03;;;32.70;59.40;;;;;;5054870;28;20021;-65
2022/08/15 09:55:20;;;;;;;5.70;5.20;;;33.00;59.00;;;;;;5054817;28;20029;-65
2022/08/15 09:57:52;;;;;;;5.75;5.28;;;33.00;59.30;;;;;;5054400;28;20051;-65
2022/08/15 10:00:55;;;;;;;5.43;5.00;;;33.20;58.40;;;;;;5054832;28;20029;-65
2022/08/15 10:03:45;;;;;;;5.95;5.45;;;33.30;58.20;;;;;;5051667;28;20044;-68
2022/08/15 10:06:24;;;;;;;6.75;6.15;;;33.70;56.90;;;;;;5036433;28;20102;-74
2022/08/15 10:08:53;;;;;;;7.38;5.40;;;33.40;57.80;;;;;;5054477;28;20086;-75
2022/08/15 10:11:32;;;;;;;7.05;5.53;;;33.90;56.40;;;;;;5036485;28;20437;-71
2022/08/15 10:14:06;;;;;;;5.72;5.22;;;34.20;55.50;;;;;;5054216;28;20131;-72
2022/08/15 10:16:40;;;;;;;5.45;5.03;;;34.10;55.10;;;;;;5054418;28;20044;-72
2022/08/15 10:19:08;;;;;;;5.45;5.05;;;34.60;55.50;;;;;;5036214;28;20056;-72
2022/08/15 10:21:46;;;;;;;5.28;4.65;;;34.70;53.70;;;;;;5036278;28;20029;-71
2022/08/15 10:24:34;;;;;;;5.45;4.80;;;34.70;54.00;;;;;;5054053;28;20032;-72
2022/08/15 10:27:22;;;;;;;5.25;4.75;;;35.10;53.00;;;;;;5054110;28;20025;-72
2022/08/15 10:29:52;;;;;;;5.07;4.70;;;34.90;53.20;;;;;;5054234;28;20483;-81
2022/08/15 10:32:29;;;;;;;4.93;4.53;;;34.80;52.30;;;;;;5036173;28;20021;-79
2022/08/15 10:35:20;;;;;;;6.00;4.80;;;34.80;52.40;;;;;;5036254;28;20060;-75
2022/08/15 10:37:53;;;;;;;4.60;4.30;;;34.70;51.90;;;;;;5053902;28;20025;-75
2022/08/15 10:40:47;;;;;;;6.95;4.28;;;35.00;51.30;;;;;;5035667;28;20049;-75
2022/08/15 10:43:32;;;;;;;7.18;4.95;;;35.10;51.10;;;;;;5053787;28;20028;-75
2022/08/15 10:46:18;;;;;;;4.78;4.35;;;35.10;50.30;;;;;;5054166;28;20524;-74
2022/08/15 10:49:09;;;;;;;4.60;4.25;;;34.90;50.50;;;;;;5053879;28;20025;-75
2022/08/15 10:51:53;;;;;;;7.85;4.55;;;34.60;50.50;;;;;;5053302;28;20040;-80
2022/08/15 10:54:43;;;;;;;5.00;4.57;;;34.60;50.50;;;;;;5054279;28;20096;-81
2022/08/15 10:57:13;;;;;;;4.90;4.50;;;34.70;50.20;;;;;;5054252;28;20048;-76
2022/08/15 10:59:45;;;;;;;5.22;4.72;;;34.70;50.20;;;;;;5053965;28;20063;-76
2022/08/15 11:02:40;;;;;;;4.88;4.47;;;35.00;51.00;;;;;;5053921;28;20032;-76
2022/08/15 11:05:10;;;;;;;4.55;4.25;;;35.20;49.80;;;;;;5053802;28;20118;-75
2022/08/15 11:07:40;;;;;;;6.70;5.07;;;35.10;49.70;;;;;;5036473;28;20029;-75
2022/08/15 11:10:18;;;;;;;5.22;4.82;;;35.10;50.00;;;;;;5035866;28;20044;-69
2022/08/15 11:12:49;;;;;;;8.65;4.88;;;35.20;49.80;;;;;;5035875;28;20115;-69
2022/08/15 11:15:25;;;;;;;5.13;4.60;;;35.40;49.40;;;;;;5053804;28;20159;-69
2022/08/15 11:18:00;;;;;;;10.05;4.65;;;35.30;49.50;;;;;;5035577;28;20477;-71
2022/08/15 11:20:44;;;;;;;5.10;4.70;;;35.10;50.20;;;;;;5053528;28;20029;-70
2022/08/15 11:23:10;;;;;;;5.22;4.75;;;35.30;49.90;;;;;;5035997;28;20398;-69
2022/08/15 11:25:40;;;;;;;5.15;4.72;;;35.60;49.20;;;;;;5053312;28;20025;-69
2022/08/15 11:28:18;;;;;;;4.68;4.28;;;35.30;48.60;;;;;;5054064;28;20028;-69
2022/08/15 11:30:45;;;;;;;5.47;4.60;;;34.90;48.50;;;;;;5035528;28;20386;-70
2022/08/15 11:33:25;;;;;;;5.82;4.10;;;35.30;48.50;;;;;;5035457;28;20025;-71
2022/08/15 11:36:03;;;;;;;4.53;4.10;;;36.00;48.00;;;;;;5053583;28;20463;-70
2022/08/15 11:38:31;;;;;;;4.53;4.13;;;36.30;47.40;;;;;;5053103;28;20017;-70
2022/08/15 11:40:59;;;;;;;4.07;3.70;;;36.70;46.90;;;;;;5052791;28;20072;-70
2022/08/15 11:43:26;;;;;;;6.15;4.10;;;36.40;45.80;;;;;;5035711;28;20032;-70
2022/08/15 11:45:53;;;;;;;5.32;4.28;;;36.20;46.80;;;;;;5053477;28;20025;-70
2022/08/15 11:48:38;;;;;;;3.97;3.58;;;36.30;46.80;;;;;;5053055;28;20025;-70
2022/08/15 11:51:26;;;;;;;4.63;3.70;;;36.60;45.80;;;;;;5035600;28;20115;-70
2022/08/15 11:54:12;;;;;;;4.78;4.38;;;36.70;44.80;;;;;;5035547;28;20368;-69
2022/08/15 11:56:47;;;;;;;4.30;3.70;;;36.80;45.30;;;;;;5053146;28;20025;-70
2022/08/15 11:59:26;;;;;;;5.45;4.68;;;37.20;45.30;;;;;;5035504;28;20028;-70
2022/08/15 12:02:19;;;;;;;4.25;3.88;;;37.10;44.90;;;;;;5054127;28;20032;-70
2022/08/15 12:04:47;;;;;;;3.97;3.67;;;36.90;45.50;;;;;;5039346;28;20466;-69
2022/08/15 12:07:23;;;;;;;4.63;3.95;;;37.10;45.20;;;;;;5056999;28;20028;-70
2022/08/15 12:09:57;;;;;;;4.00;3.70;;;36.80;45.90;;;;;;5056699;28;20029;-69
2022/08/15 12:12:42;;;;;;;4.55;3.60;;;36.70;45.30;;;;;;5038801;28;20123;-70
2022/08/15 12:15:07;;;;;;;6.53;4.38;;;37.00;44.90;;;;;;5039006;28;20036;-70
2022/08/15 12:17:33;;;;;;;4.22;3.92;;;37.20;44.80;;;;;;5056501;28;20033;-70
2022/08/15 12:19:59;;;;;;;4.00;3.70;;;37.30;44.60;;;;;;5056599;28;20061;-69
2022/08/15 12:22:43;;;;;;;4.20;3.90;;;37.70;44.80;;;;;;5056441;28;20025;-69
2022/08/15 12:25:09;;;;;;;4.40;4.03;;;37.50;44.10;;;;;;5038556;28;20506;-69
2022/08/15 12:27:35;;;;;;;6.28;4.28;;;37.40;44.00;;;;;;5038322;28;20544;-70
2022/08/15 12:30:07;;;;;;;3.92;3.60;;;37.20;44.30;;;;;;5038641;28;20025;-69
2022/08/15 12:32:35;;;;;;;3.50;3.20;;;36.90;43.50;;;;;;5056299;28;20028;-78
2022/08/15 12:35:01;;;;;;;4.15;3.50;;;36.90;43.50;;;;;;5056306;28;20112;-80
2022/08/15 12:37:28;;;;;;;3.90;3.20;;;36.70;43.60;;;;;;5056257;28;20021;-80
2022/08/15 12:39:57;;;;;;;4.75;3.70;;;36.90;43.40;;;;;;5038141;28;20076;-79
2022/08/15 12:42:34;;;;;;;4.40;3.60;;;36.40;44.10;;;;;;5038278;28;20021;-79
2022/08/15 12:45:09;;;;;;;3.70;3.40;;;36.80;44.20;;;;;;5038103;28;20029;-79
2022/08/15 12:47:35;;;;;;;3.70;3.40;;;36.40;44.30;;;;;;5038530;28;20123;-79
2022/08/15 12:50:04;;;;;;;3.53;3.33;;;36.70;43.80;;;;;;5056094;28;20416;-79
2022/08/15 12:52:30;;;;;;;3.58;3.28;;;36.50;44.20;;;;;;5055644;28;20157;-79
2022/08/15 12:54:57;;;;;;;4.20;3.20;;;36.70;43.70;;;;;;5056045;28;20040;-79
2022/08/15 12:57:23;;;;;;;3.27;3.07;;;37.30;42.60;;;;;;5038202;28;20029;-79
2022/08/15 12:59:49;;;;;;;3.60;2.95;;;37.30;42.10;;;;;;5055894;28;20470;-79
2022/08/15 13:02:15;;;;;;;3.20;2.90;;;37.10;41.90;;;;;;5055840;28;20060;-81
2022/08/15 13:04:46;;;;;;;4.88;2.88;;;36.90;42.40;;;;;;5037962;28;20463;-78
2022/08/15 13:07:14;;;;;;;3.05;2.83;;;37.20;41.80;;;;;;5038366;28;20029;-87
2022/08/15 13:09:40;;;;;;;3.17;2.63;;;37.40;41.70;;;;;;5056196;28;20029;-81
2022/08/15 13:12:06;;;;;;;3.15;2.85;;;37.50;41.60;;;;;;5038852;28;20070;-87
2022/08/15 13:14:32;;;;;;;2.80;2.60;;;37.50;41.50;;;;;;5036958;28;20060;-75
2022/08/15 13:16:59;;;;;;;3.47;3.00;;;37.30;41.30;;;;;;5055607;28;20151;-74